sensor_id;sensor_type;location;lat;lon;timestamp;P1;durP1;ratioP1;P2;durP2;ratioP2
31872;SDS011;22407;42.820;23.374;2023-07-31T00:00:35;9.30;;;5.87;;
31872;SDS011;22407;42.820;23.374;2023-07-31T00:03:00;12.03;;;6.63;;
31872;SDS011;22407;42.820;23.374;2023-07-31T00:05:26;9.77;;;6.30;;
31872;SDS011;22407;42.820;23.374;2023-07-31T00:07:51;9.60;;;6.45;;
31872;SDS011;22407;42.820;23.374;2023-07-31T00:10:18;9.93;;;6.03;;
31872;SDS011;22407;42.820;23.374;2023-07-31T00:12:45;9.50;;;6.13;;
31872;SDS011;22407;42.820;23.374;2023-07-31T00:15:10;10.70;;;6.03;;
31872;SDS011;22407;42.820;23.374;2023-07-31T00:17:36;10.20;;;6.10;;
31872;SDS011;22407;42.820;23.374;2023-07-31T00:20:01;10.52;;;6.65;;
31872;SDS011;22407;42.820;23.374;2023-07-31T00:22:27;10.68;;;7.00;;
31872;SDS011;22407;42.820;23.374;2023-07-31T00:24:52;13.43;;;7.80;;
31872;SDS011;22407;42.820;23.374;2023-07-31T00:27:17;11.80;;;7.20;;
31872;SDS011;22407;42.820;23.374;2023-07-31T00:29:43;12.50;;;7.00;;
31872;SDS011;22407;42.820;23.374;2023-07-31T03:38:19;15.98;;;11.57;;
31872;SDS011;22407;42.820;23.374;2023-07-31T03:40:52;14.43;;;10.32;;
31872;SDS011;22407;42.820;23.374;2023-07-31T03:43:17;15.23;;;10.67;;
31872;SDS011;22407;42.820;23.374;2023-07-31T03:45:42;15.10;;;9.95;;
31872;SDS011;22407;42.820;23.374;2023-07-31T03:48:08;15.13;;;10.70;;
31872;SDS011;22407;42.820;23.374;2023-07-31T03:50:33;14.37;;;10.30;;
31872;SDS011;22407;42.820;23.374;2023-07-31T03:52:58;14.33;;;10.67;;
31872;SDS011;22407;42.820;23.374;2023-07-31T03:55:24;15.57;;;10.17;;
31872;SDS011;22407;42.820;23.374;2023-07-31T03:57:49;13.97;;;9.60;;
31872;SDS011;22407;42.820;23.374;2023-07-31T04:00:15;14.93;;;10.50;;
31872;SDS011;22407;42.820;23.374;2023-07-31T04:02:40;16.27;;;10.53;;
31872;SDS011;22407;42.820;23.374;2023-07-31T04:05:07;14.87;;;10.93;;
31872;SDS011;22407;42.820;23.374;2023-07-31T04:07:32;16.58;;;11.43;;
31872;SDS011;22407;42.820;23.374;2023-07-31T04:09:57;15.70;;;11.50;;
31872;SDS011;22407;42.820;23.374;2023-07-31T04:12:23;16.00;;;11.45;;
31872;SDS011;22407;42.820;23.374;2023-07-31T04:14:48;15.43;;;11.20;;
31872;SDS011;22407;42.820;23.374;2023-07-31T04:17:13;15.07;;;10.30;;
31872;SDS011;22407;42.820;23.374;2023-07-31T04:19:42;15.00;;;10.00;;
31872;SDS011;22407;42.820;23.374;2023-07-31T04:22:07;12.73;;;9.10;;
31872;SDS011;22407;42.820;23.374;2023-07-31T04:24:32;13.67;;;9.00;;
31872;SDS011;22407;42.820;23.374;2023-07-31T04:26:58;13.97;;;8.80;;
31872;SDS011;22407;42.820;23.374;2023-07-31T04:29:23;12.13;;;8.33;;
31872;SDS011;22407;42.820;23.374;2023-07-31T04:31:49;12.00;;;8.18;;
31872;SDS011;22407;42.820;23.374;2023-07-31T04:34:14;13.37;;;9.17;;
31872;SDS011;22407;42.820;23.374;2023-07-31T04:36:39;15.00;;;10.17;;
31872;SDS011;22407;42.820;23.374;2023-07-31T04:39:04;15.00;;;10.93;;
31872;SDS011;22407;42.820;23.374;2023-07-31T04:41:30;15.63;;;10.60;;
31872;SDS011;22407;42.820;23.374;2023-07-31T04:43:55;14.43;;;10.10;;
31872;SDS011;22407;42.820;23.374;2023-07-31T04:46:21;16.17;;;10.57;;
31872;SDS011;22407;42.820;23.374;2023-07-31T04:48:46;15.00;;;10.53;;
31872;SDS011;22407;42.820;23.374;2023-07-31T04:51:11;15.80;;;10.20;;
31872;SDS011;22407;42.820;23.374;2023-07-31T04:53:37;13.30;;;9.83;;
31872;SDS011;22407;42.820;23.374;2023-07-31T04:56:02;14.80;;;10.23;;
31872;SDS011;22407;42.820;23.374;2023-07-31T04:58:27;13.77;;;9.60;;
31872;SDS011;22407;42.820;23.374;2023-07-31T05:00:53;15.07;;;9.73;;
31872;SDS011;22407;42.820;23.374;2023-07-31T05:03:18;15.13;;;10.38;;
31872;SDS011;22407;42.820;23.374;2023-07-31T05:05:43;16.70;;;10.70;;
31872;SDS011;22407;42.820;23.374;2023-07-31T05:08:09;17.30;;;11.20;;
31872;SDS011;22407;42.820;23.374;2023-07-31T05:10:34;18.10;;;11.97;;
31872;SDS011;22407;42.820;23.374;2023-07-31T05:13:00;17.60;;;11.60;;
31872;SDS011;22407;42.820;23.374;2023-07-31T05:15:25;19.53;;;12.37;;
31872;SDS011;22407;42.820;23.374;2023-07-31T05:17:50;18.63;;;12.83;;
31872;SDS011;22407;42.820;23.374;2023-07-31T05:20:16;18.17;;;12.07;;
31872;SDS011;22407;42.820;23.374;2023-07-31T05:22:41;17.58;;;12.30;;
31872;SDS011;22407;42.820;23.374;2023-07-31T05:25:07;18.07;;;11.73;;
31872;SDS011;22407;42.820;23.374;2023-07-31T05:27:32;18.13;;;11.97;;
31872;SDS011;22407;42.820;23.374;2023-07-31T05:29:58;18.33;;;12.30;;
31872;SDS011;22407;42.820;23.374;2023-07-31T05:32:23;18.83;;;12.60;;
31872;SDS011;22407;42.820;23.374;2023-07-31T05:34:50;19.30;;;13.20;;
31872;SDS011;22407;42.820;23.374;2023-07-31T05:37:17;20.63;;;13.27;;
31872;SDS011;22407;42.820;23.374;2023-07-31T05:39:42;23.30;;;13.50;;
31872;SDS011;22407;42.820;23.374;2023-07-31T05:55:03;22.15;;;14.60;;
31872;SDS011;22407;42.820;23.374;2023-07-31T05:57:28;22.73;;;15.10;;
31872;SDS011;22407;42.820;23.374;2023-07-31T05:59:53;23.58;;;14.75;;
31872;SDS011;22407;42.820;23.374;2023-07-31T06:02:19;21.53;;;14.87;;
31872;SDS011;22407;42.820;23.374;2023-07-31T06:04:44;24.40;;;15.47;;
31872;SDS011;22407;42.820;23.374;2023-07-31T06:07:09;22.93;;;15.07;;
31872;SDS011;22407;42.820;23.374;2023-07-31T06:09:35;23.90;;;15.38;;
31872;SDS011;22407;42.820;23.374;2023-07-31T06:12:01;23.43;;;15.80;;
31872;SDS011;22407;42.820;23.374;2023-07-31T06:14:26;23.15;;;16.00;;
31872;SDS011;22407;42.820;23.374;2023-07-31T06:16:52;23.07;;;15.57;;
31872;SDS011;22407;42.820;23.374;2023-07-31T06:19:17;23.13;;;15.97;;
31872;SDS011;22407;42.820;23.374;2023-07-31T06:21:42;22.90;;;15.17;;
31872;SDS011;22407;42.820;23.374;2023-07-31T06:24:09;23.85;;;15.48;;
31872;SDS011;22407;42.820;23.374;2023-07-31T06:26:34;21.43;;;14.50;;
31872;SDS011;22407;42.820;23.374;2023-07-31T06:28:59;23.38;;;14.73;;
31872;SDS011;22407;42.820;23.374;2023-07-31T06:31:24;22.47;;;15.07;;
31872;SDS011;22407;42.820;23.374;2023-07-31T06:33:51;22.17;;;14.67;;
31872;SDS011;22407;42.820;23.374;2023-07-31T06:36:16;19.93;;;13.70;;
31872;SDS011;22407;42.820;23.374;2023-07-31T06:38:41;19.58;;;12.70;;
31872;SDS011;22407;42.820;23.374;2023-07-31T06:41:07;19.30;;;12.77;;
31872;SDS011;22407;42.820;23.374;2023-07-31T06:43:32;19.40;;;13.10;;
31872;SDS011;22407;42.820;23.374;2023-07-31T06:45:57;19.20;;;13.20;;
31872;SDS011;22407;42.820;23.374;2023-07-31T06:48:23;20.67;;;12.60;;
31872;SDS011;22407;42.820;23.374;2023-07-31T06:50:48;17.13;;;11.67;;
31872;SDS011;22407;42.820;23.374;2023-07-31T06:53:13;18.40;;;11.10;;
31872;SDS011;22407;42.820;23.374;2023-07-31T06:55:38;16.23;;;11.27;;
31872;SDS011;22407;42.820;23.374;2023-07-31T06:58:04;15.40;;;10.68;;
31872;SDS011;22407;42.820;23.374;2023-07-31T07:00:29;14.77;;;10.17;;
31872;SDS011;22407;42.820;23.374;2023-07-31T07:02:54;15.03;;;10.10;;
31872;SDS011;22407;42.820;23.374;2023-07-31T07:05:20;15.13;;;9.77;;
31872;SDS011;22407;42.820;23.374;2023-07-31T07:07:45;14.53;;;10.10;;
31872;SDS011;22407;42.820;23.374;2023-07-31T07:10:10;14.80;;;9.53;;
31872;SDS011;22407;42.820;23.374;2023-07-31T07:12:36;13.97;;;9.37;;
31872;SDS011;22407;42.820;23.374;2023-07-31T07:15:01;14.93;;;10.23;;
31872;SDS011;22407;42.820;23.374;2023-07-31T07:17:27;13.23;;;9.50;;
31872;SDS011;22407;42.820;23.374;2023-07-31T07:19:53;14.18;;;9.73;;
31872;SDS011;22407;42.820;23.374;2023-07-31T07:22:18;13.95;;;9.40;;
31872;SDS011;22407;42.820;23.374;2023-07-31T07:24:43;13.63;;;8.90;;
31872;SDS011;22407;42.820;23.374;2023-07-31T07:27:09;12.03;;;8.30;;
31872;SDS011;22407;42.820;23.374;2023-07-31T07:29:34;16.43;;;8.43;;
31872;SDS011;22407;42.820;23.374;2023-07-31T07:31:59;10.60;;;6.50;;
31872;SDS011;22407;42.820;23.374;2023-07-31T07:34:25;10.63;;;6.70;;
31872;SDS011;22407;42.820;23.374;2023-07-31T07:36:51;9.77;;;6.50;;
31872;SDS011;22407;42.820;23.374;2023-07-31T07:39:16;11.30;;;6.77;;
31872;SDS011;22407;42.820;23.374;2023-07-31T07:41:41;10.93;;;6.97;;
31872;SDS011;22407;42.820;23.374;2023-07-31T07:44:07;10.55;;;6.90;;
31872;SDS011;22407;42.820;23.374;2023-07-31T07:46:33;11.13;;;6.95;;
31872;SDS011;22407;42.820;23.374;2023-07-31T07:48:58;11.80;;;6.53;;
31872;SDS011;22407;42.820;23.374;2023-07-31T07:51:23;10.27;;;6.07;;
31872;SDS011;22407;42.820;23.374;2023-07-31T07:53:48;11.27;;;6.33;;
31872;SDS011;22407;42.820;23.374;2023-07-31T07:56:14;11.18;;;6.20;;
31872;SDS011;22407;42.820;23.374;2023-07-31T07:58:39;11.47;;;6.20;;
31872;SDS011;22407;42.820;23.374;2023-07-31T08:01:04;11.00;;;6.33;;
31872;SDS011;22407;42.820;23.374;2023-07-31T08:03:29;10.70;;;6.20;;
31872;SDS011;22407;42.820;23.374;2023-07-31T08:06:01;10.73;;;6.70;;
31872;SDS011;22407;42.820;23.374;2023-07-31T08:08:27;10.95;;;6.38;;
31872;SDS011;22407;42.820;23.374;2023-07-31T08:10:52;10.88;;;5.72;;
31872;SDS011;22407;42.820;23.374;2023-07-31T08:13:18;9.37;;;5.77;;
31872;SDS011;22407;42.820;23.374;2023-07-31T08:15:43;10.10;;;5.67;;
31872;SDS011;22407;42.820;23.374;2023-07-31T08:18:09;11.27;;;5.47;;
31872;SDS011;22407;42.820;23.374;2023-07-31T08:20:34;8.88;;;5.25;;
31872;SDS011;22407;42.820;23.374;2023-07-31T08:23:00;8.30;;;5.30;;
31872;SDS011;22407;42.820;23.374;2023-07-31T08:25:25;8.13;;;5.00;;
31872;SDS011;22407;42.820;23.374;2023-07-31T08:27:50;9.27;;;5.30;;
31872;SDS011;22407;42.820;23.374;2023-07-31T08:30:17;8.73;;;5.30;;
31872;SDS011;22407;42.820;23.374;2023-07-31T08:32:43;8.73;;;5.13;;
31872;SDS011;22407;42.820;23.374;2023-07-31T08:35:08;8.53;;;4.87;;
31872;SDS011;22407;42.820;23.374;2023-07-31T08:37:33;8.30;;;4.63;;
31872;SDS011;22407;42.820;23.374;2023-07-31T08:39:58;8.17;;;4.57;;
31872;SDS011;22407;42.820;23.374;2023-07-31T08:42:24;7.90;;;4.67;;
31872;SDS011;22407;42.820;23.374;2023-07-31T08:44:50;8.32;;;4.40;;
31872;SDS011;22407;42.820;23.374;2023-07-31T08:47:15;8.50;;;4.33;;
31872;SDS011;22407;42.820;23.374;2023-07-31T08:49:41;7.60;;;4.15;;
31872;SDS011;22407;42.820;23.374;2023-07-31T08:52:07;9.18;;;4.40;;
31872;SDS011;22407;42.820;23.374;2023-07-31T08:54:32;9.00;;;4.10;;
31872;SDS011;22407;42.820;23.374;2023-07-31T08:56:58;8.50;;;4.20;;
31872;SDS011;22407;42.820;23.374;2023-07-31T08:59:25;8.90;;;4.37;;
31872;SDS011;22407;42.820;23.374;2023-07-31T09:01:52;9.63;;;4.70;;
31872;SDS011;22407;42.820;23.374;2023-07-31T09:04:17;7.72;;;4.35;;
31872;SDS011;22407;42.820;23.374;2023-07-31T09:06:44;7.90;;;3.95;;
31872;SDS011;22407;42.820;23.374;2023-07-31T09:09:10;8.80;;;4.00;;
31872;SDS011;22407;42.820;23.374;2023-07-31T09:11:35;8.33;;;4.00;;
31872;SDS011;22407;42.820;23.374;2023-07-31T09:14:00;8.10;;;3.90;;
31872;SDS011;22407;42.820;23.374;2023-07-31T09:16:33;8.07;;;3.92;;
31872;SDS011;22407;42.820;23.374;2023-07-31T09:18:58;7.30;;;3.90;;
31872;SDS011;22407;42.820;23.374;2023-07-31T09:21:26;7.63;;;4.15;;
31872;SDS011;22407;42.820;23.374;2023-07-31T09:23:53;8.80;;;3.92;;
31872;SDS011;22407;42.820;23.374;2023-07-31T09:29:18;7.40;;;3.60;;
31872;SDS011;22407;42.820;23.374;2023-07-31T09:31:43;6.90;;;3.30;;
31872;SDS011;22407;42.820;23.374;2023-07-31T09:34:10;7.40;;;3.35;;
31872;SDS011;22407;42.820;23.374;2023-07-31T09:36:49;7.20;;;3.35;;
31872;SDS011;22407;42.820;23.374;2023-07-31T09:39:15;7.22;;;3.22;;
31872;SDS011;22407;42.820;23.374;2023-07-31T09:41:44;6.78;;;3.17;;
31872;SDS011;22407;42.820;23.374;2023-07-31T09:44:10;6.93;;;2.92;;
31872;SDS011;22407;42.820;23.374;2023-07-31T09:46:35;7.00;;;3.13;;
31872;SDS011;22407;42.820;23.374;2023-07-31T09:49:03;7.55;;;3.10;;
31872;SDS011;22407;42.820;23.374;2023-07-31T09:51:29;7.68;;;3.30;;
31872;SDS011;22407;42.820;23.374;2023-07-31T09:53:56;7.57;;;3.53;;
31872;SDS011;22407;42.820;23.374;2023-07-31T09:56:21;6.43;;;3.43;;
31872;SDS011;22407;42.820;23.374;2023-07-31T09:58:47;6.93;;;3.55;;
31872;SDS011;22407;42.820;23.374;2023-07-31T10:01:13;6.00;;;3.27;;
31872;SDS011;22407;42.820;23.374;2023-07-31T10:03:38;6.55;;;3.15;;
31872;SDS011;22407;42.820;23.374;2023-07-31T10:06:04;5.93;;;2.80;;
31872;SDS011;22407;42.820;23.374;2023-07-31T10:08:32;6.80;;;2.95;;
31872;SDS011;22407;42.820;23.374;2023-07-31T10:10:58;6.47;;;3.10;;
31872;SDS011;22407;42.820;23.374;2023-07-31T10:13:24;6.70;;;3.17;;
31872;SDS011;22407;42.820;23.374;2023-07-31T10:15:50;6.93;;;2.90;;
31872;SDS011;22407;42.820;23.374;2023-07-31T10:18:15;6.30;;;3.00;;
31872;SDS011;22407;42.820;23.374;2023-07-31T10:20:41;6.00;;;3.10;;
31872;SDS011;22407;42.820;23.374;2023-07-31T10:23:07;6.40;;;3.10;;
31872;SDS011;22407;42.820;23.374;2023-07-31T10:25:33;6.10;;;3.00;;
31872;SDS011;22407;42.820;23.374;2023-07-31T10:27:59;6.03;;;2.80;;
31872;SDS011;22407;42.820;23.374;2023-07-31T10:30:26;6.07;;;2.95;;
31872;SDS011;22407;42.820;23.374;2023-07-31T10:32:51;6.47;;;2.90;;
31872;SDS011;22407;42.820;23.374;2023-07-31T10:35:18;6.55;;;2.92;;
31872;SDS011;22407;42.820;23.374;2023-07-31T10:37:43;5.60;;;2.80;;
31872;SDS011;22407;42.820;23.374;2023-07-31T10:40:18;6.40;;;2.80;;
31872;SDS011;22407;42.820;23.374;2023-07-31T10:42:52;6.30;;;2.90;;
31872;SDS011;22407;42.820;23.374;2023-07-31T10:48:02;5.82;;;2.60;;
31872;SDS011;22407;42.820;23.374;2023-07-31T10:50:28;5.70;;;2.80;;
31872;SDS011;22407;42.820;23.374;2023-07-31T10:52:54;5.60;;;2.88;;
31872;SDS011;22407;42.820;23.374;2023-07-31T10:57:47;6.07;;;2.60;;
31872;SDS011;22407;42.820;23.374;2023-07-31T11:00:19;5.72;;;2.60;;
31872;SDS011;22407;42.820;23.374;2023-07-31T11:08:11;6.18;;;2.50;;
31872;SDS011;22407;42.820;23.374;2023-07-31T11:10:36;6.30;;;2.70;;
31872;SDS011;22407;42.820;23.374;2023-07-31T11:13:03;5.73;;;2.77;;
31872;SDS011;22407;42.820;23.374;2023-07-31T11:15:29;5.43;;;2.60;;
31872;SDS011;22407;42.820;23.374;2023-07-31T11:17:55;6.30;;;2.60;;
31872;SDS011;22407;42.820;23.374;2023-07-31T11:20:23;7.00;;;2.80;;
31872;SDS011;22407;42.820;23.374;2023-07-31T11:22:48;6.20;;;2.50;;
31872;SDS011;22407;42.820;23.374;2023-07-31T11:25:14;5.43;;;2.47;;
31872;SDS011;22407;42.820;23.374;2023-07-31T11:27:39;5.97;;;2.70;;
31872;SDS011;22407;42.820;23.374;2023-07-31T11:30:08;5.38;;;2.53;;
31872;SDS011;22407;42.820;23.374;2023-07-31T11:32:36;6.28;;;2.78;;
31872;SDS011;22407;42.820;23.374;2023-07-31T11:35:01;5.72;;;2.33;;
31872;SDS011;22407;42.820;23.374;2023-07-31T11:37:39;5.10;;;2.30;;
31872;SDS011;22407;42.820;23.374;2023-07-31T11:40:05;5.55;;;2.30;;
31872;SDS011;22407;42.820;23.374;2023-07-31T11:42:31;9.40;;;3.37;;
31872;SDS011;22407;42.820;23.374;2023-07-31T11:44:56;13.85;;;5.90;;
31872;SDS011;22407;42.820;23.374;2023-07-31T11:47:21;7.17;;;3.10;;
31872;SDS011;22407;42.820;23.374;2023-07-31T11:49:46;7.33;;;2.80;;
31872;SDS011;22407;42.820;23.374;2023-07-31T11:52:13;6.40;;;2.75;;
31872;SDS011;22407;42.820;23.374;2023-07-31T11:54:39;5.70;;;2.30;;
31872;SDS011;22407;42.820;23.374;2023-07-31T11:57:05;5.88;;;2.40;;
31872;SDS011;22407;42.820;23.374;2023-07-31T11:59:31;5.40;;;2.30;;
31872;SDS011;22407;42.820;23.374;2023-07-31T12:01:56;5.20;;;2.15;;
31872;SDS011;22407;42.820;23.374;2023-07-31T12:04:22;5.70;;;2.30;;
31872;SDS011;22407;42.820;23.374;2023-07-31T12:06:52;6.43;;;2.40;;
31872;SDS011;22407;42.820;23.374;2023-07-31T12:09:17;5.30;;;2.30;;
31872;SDS011;22407;42.820;23.374;2023-07-31T12:11:43;10.70;;;4.67;;
31872;SDS011;22407;42.820;23.374;2023-07-31T12:14:19;8.27;;;3.05;;
31872;SDS011;22407;42.820;23.374;2023-07-31T12:16:44;6.30;;;2.38;;
31872;SDS011;22407;42.820;23.374;2023-07-31T12:19:09;5.70;;;2.40;;
31872;SDS011;22407;42.820;23.374;2023-07-31T12:21:34;5.45;;;2.20;;
31872;SDS011;22407;42.820;23.374;2023-07-31T12:24:00;11.33;;;3.00;;
31872;SDS011;22407;42.820;23.374;2023-07-31T12:26:25;7.10;;;2.67;;
31872;SDS011;22407;42.820;23.374;2023-07-31T12:28:58;6.70;;;2.78;;
31872;SDS011;22407;42.820;23.374;2023-07-31T12:31:23;6.47;;;2.87;;
31872;SDS011;22407;42.820;23.374;2023-07-31T12:33:52;7.63;;;2.90;;
31872;SDS011;22407;42.820;23.374;2023-07-31T12:36:20;6.23;;;2.70;;
31872;SDS011;22407;42.820;23.374;2023-07-31T12:38:46;7.13;;;2.83;;
31872;SDS011;22407;42.820;23.374;2023-07-31T12:41:13;7.00;;;2.70;;
31872;SDS011;22407;42.820;23.374;2023-07-31T12:43:40;5.90;;;2.60;;
31872;SDS011;22407;42.820;23.374;2023-07-31T12:46:06;6.68;;;2.70;;
31872;SDS011;22407;42.820;23.374;2023-07-31T12:48:33;6.40;;;2.67;;
31872;SDS011;22407;42.820;23.374;2023-07-31T12:50:58;6.65;;;2.80;;
31872;SDS011;22407;42.820;23.374;2023-07-31T12:53:23;10.27;;;3.10;;
31872;SDS011;22407;42.820;23.374;2023-07-31T12:55:49;6.47;;;2.60;;
31872;SDS011;22407;42.820;23.374;2023-07-31T12:58:15;5.80;;;2.80;;
31872;SDS011;22407;42.820;23.374;2023-07-31T13:00:40;8.27;;;3.93;;
31872;SDS011;22407;42.820;23.374;2023-07-31T13:03:05;7.30;;;4.20;;
31872;SDS011;22407;42.820;23.374;2023-07-31T13:05:30;8.13;;;4.83;;
31872;SDS011;22407;42.820;23.374;2023-07-31T13:07:56;9.07;;;5.07;;
31872;SDS011;22407;42.820;23.374;2023-07-31T13:10:22;7.80;;;4.40;;
31872;SDS011;22407;42.820;23.374;2023-07-31T13:12:47;7.63;;;4.28;;
31872;SDS011;22407;42.820;23.374;2023-07-31T13:15:12;8.10;;;4.80;;
31872;SDS011;22407;42.820;23.374;2023-07-31T13:17:38;8.80;;;4.87;;
31872;SDS011;22407;42.820;23.374;2023-07-31T13:20:03;8.63;;;4.80;;
31872;SDS011;22407;42.820;23.374;2023-07-31T13:22:29;7.65;;;4.40;;
31872;SDS011;22407;42.820;23.374;2023-07-31T13:24:55;8.17;;;4.53;;
31872;SDS011;22407;42.820;23.374;2023-07-31T13:27:20;8.20;;;4.53;;
31872;SDS011;22407;42.820;23.374;2023-07-31T13:29:47;8.47;;;4.60;;
31872;SDS011;22407;42.820;23.374;2023-07-31T13:32:12;7.37;;;4.20;;
31872;SDS011;22407;42.820;23.374;2023-07-31T13:34:37;7.63;;;4.37;;
31872;SDS011;22407;42.820;23.374;2023-07-31T13:37:03;7.35;;;4.30;;
31872;SDS011;22407;42.820;23.374;2023-07-31T13:39:28;8.07;;;4.77;;
31872;SDS011;22407;42.820;23.374;2023-07-31T13:41:53;7.60;;;4.33;;
31872;SDS011;22407;42.820;23.374;2023-07-31T13:44:20;7.88;;;4.30;;
31872;SDS011;22407;42.820;23.374;2023-07-31T13:46:45;7.10;;;4.20;;
31872;SDS011;22407;42.820;23.374;2023-07-31T13:49:10;7.30;;;4.10;;
31872;SDS011;22407;42.820;23.374;2023-07-31T13:51:35;8.60;;;4.50;;
31872;SDS011;22407;42.820;23.374;2023-07-31T13:54:01;7.63;;;4.37;;
31872;SDS011;22407;42.820;23.374;2023-07-31T13:56:26;20.33;;;4.93;;
31872;SDS011;22407;42.820;23.374;2023-07-31T13:58:51;8.60;;;4.50;;
31872;SDS011;22407;42.820;23.374;2023-07-31T14:01:17;8.27;;;3.90;;
31872;SDS011;22407;42.820;23.374;2023-07-31T14:03:42;7.50;;;3.70;;
31872;SDS011;22407;42.820;23.374;2023-07-31T14:06:07;6.93;;;3.43;;
31872;SDS011;22407;42.820;23.374;2023-07-31T14:08:32;7.47;;;3.50;;
31872;SDS011;22407;42.820;23.374;2023-07-31T14:10:58;6.90;;;3.50;;
31872;SDS011;22407;42.820;23.374;2023-07-31T14:13:23;7.03;;;3.53;;
31872;SDS011;22407;42.820;23.374;2023-07-31T14:15:48;7.50;;;3.40;;
31872;SDS011;22407;42.820;23.374;2023-07-31T14:18:13;7.30;;;3.50;;
31872;SDS011;22407;42.820;23.374;2023-07-31T14:20:39;7.27;;;3.67;;
31872;SDS011;22407;42.820;23.374;2023-07-31T14:23:04;7.43;;;3.60;;
31872;SDS011;22407;42.820;23.374;2023-07-31T14:25:29;7.03;;;3.30;;
31872;SDS011;22407;42.820;23.374;2023-07-31T14:27:54;6.33;;;3.30;;
31872;SDS011;22407;42.820;23.374;2023-07-31T14:30:20;6.23;;;3.10;;
31872;SDS011;22407;42.820;23.374;2023-07-31T14:32:45;5.70;;;2.70;;
31872;SDS011;22407;42.820;23.374;2023-07-31T14:35:11;7.10;;;2.93;;
31872;SDS011;22407;42.820;23.374;2023-07-31T14:37:37;6.53;;;2.50;;
31872;SDS011;22407;42.820;23.374;2023-07-31T14:40:02;6.55;;;2.55;;
31872;SDS011;22407;42.820;23.374;2023-07-31T14:42:27;6.00;;;2.33;;
31872;SDS011;22407;42.820;23.374;2023-07-31T14:44:53;5.50;;;2.50;;
31872;SDS011;22407;42.820;23.374;2023-07-31T14:47:18;5.50;;;2.47;;
31872;SDS011;22407;42.820;23.374;2023-07-31T14:49:43;5.30;;;2.37;;
31872;SDS011;22407;42.820;23.374;2023-07-31T14:52:09;5.60;;;2.20;;
31872;SDS011;22407;42.820;23.374;2023-07-31T14:54:34;5.90;;;2.63;;
31872;SDS011;22407;42.820;23.374;2023-07-31T14:56:59;6.10;;;2.40;;
31872;SDS011;22407;42.820;23.374;2023-07-31T14:59:25;5.50;;;2.47;;
31872;SDS011;22407;42.820;23.374;2023-07-31T15:01:50;6.30;;;2.47;;
31872;SDS011;22407;42.820;23.374;2023-07-31T15:04:15;5.73;;;2.40;;
31872;SDS011;22407;42.820;23.374;2023-07-31T15:06:40;5.20;;;2.33;;
31872;SDS011;22407;42.820;23.374;2023-07-31T15:09:06;8.07;;;2.50;;
31872;SDS011;22407;42.820;23.374;2023-07-31T15:11:32;6.20;;;2.50;;
31872;SDS011;22407;42.820;23.374;2023-07-31T15:13:57;6.10;;;2.70;;
31872;SDS011;22407;42.820;23.374;2023-07-31T15:16:22;6.63;;;2.70;;
31872;SDS011;22407;42.820;23.374;2023-07-31T15:18:48;6.47;;;2.70;;
31872;SDS011;22407;42.820;23.374;2023-07-31T15:21:13;5.80;;;2.73;;
31872;SDS011;22407;42.820;23.374;2023-07-31T15:23:38;6.20;;;2.70;;
31872;SDS011;22407;42.820;23.374;2023-07-31T15:26:04;9.37;;;3.10;;
31872;SDS011;22407;42.820;23.374;2023-07-31T15:28:29;6.87;;;2.80;;
31872;SDS011;22407;42.820;23.374;2023-07-31T15:30:54;8.43;;;2.70;;
31872;SDS011;22407;42.820;23.374;2023-07-31T15:33:20;6.20;;;2.80;;
31872;SDS011;22407;42.820;23.374;2023-07-31T15:35:45;7.20;;;3.00;;
31872;SDS011;22407;42.820;23.374;2023-07-31T15:38:11;7.17;;;3.17;;
31872;SDS011;22407;42.820;23.374;2023-07-31T15:40:38;8.32;;;3.30;;
31872;SDS011;22407;42.820;23.374;2023-07-31T15:43:03;6.60;;;3.40;;
31872;SDS011;22407;42.820;23.374;2023-07-31T15:45:29;6.80;;;3.55;;
31872;SDS011;22407;42.820;23.374;2023-07-31T15:47:55;8.30;;;3.40;;
31872;SDS011;22407;42.820;23.374;2023-07-31T15:50:20;6.90;;;3.13;;
31872;SDS011;22407;42.820;23.374;2023-07-31T15:52:46;8.50;;;3.40;;
31872;SDS011;22407;42.820;23.374;2023-07-31T15:55:11;6.30;;;3.40;;
31872;SDS011;22407;42.820;23.374;2023-07-31T15:57:36;6.10;;;3.20;;
31872;SDS011;22407;42.820;23.374;2023-07-31T16:00:02;6.13;;;3.33;;
31872;SDS011;22407;42.820;23.374;2023-07-31T16:02:27;6.40;;;3.40;;
31872;SDS011;22407;42.820;23.374;2023-07-31T16:04:53;6.30;;;3.37;;
31872;SDS011;22407;42.820;23.374;2023-07-31T16:07:18;6.27;;;3.20;;
31872;SDS011;22407;42.820;23.374;2023-07-31T16:09:44;6.40;;;3.10;;
31872;SDS011;22407;42.820;23.374;2023-07-31T16:12:09;6.43;;;3.30;;
31872;SDS011;22407;42.820;23.374;2023-07-31T16:14:36;6.28;;;3.20;;
31872;SDS011;22407;42.820;23.374;2023-07-31T16:17:01;6.77;;;3.40;;
31872;SDS011;22407;42.820;23.374;2023-07-31T16:19:26;6.87;;;3.47;;
31872;SDS011;22407;42.820;23.374;2023-07-31T16:21:52;6.63;;;3.40;;
31872;SDS011;22407;42.820;23.374;2023-07-31T16:24:17;9.38;;;3.70;;
31872;SDS011;22407;42.820;23.374;2023-07-31T16:26:42;6.00;;;3.10;;
31872;SDS011;22407;42.820;23.374;2023-07-31T16:29:08;6.50;;;3.40;;
31872;SDS011;22407;42.820;23.374;2023-07-31T16:31:33;7.00;;;3.30;;
31872;SDS011;22407;42.820;23.374;2023-07-31T16:33:58;7.70;;;3.40;;
31872;SDS011;22407;42.820;23.374;2023-07-31T16:36:24;5.83;;;3.00;;
31872;SDS011;22407;42.820;23.374;2023-07-31T16:38:49;8.07;;;3.10;;
31872;SDS011;22407;42.820;23.374;2023-07-31T16:41:14;8.00;;;3.42;;
31872;SDS011;22407;42.820;23.374;2023-07-31T16:43:40;5.90;;;3.20;;
31872;SDS011;22407;42.820;23.374;2023-07-31T16:46:05;6.27;;;3.27;;
31872;SDS011;22407;42.820;23.374;2023-07-31T16:48:30;6.40;;;3.30;;
31872;SDS011;22407;42.820;23.374;2023-07-31T16:50:56;6.00;;;3.10;;
31872;SDS011;22407;42.820;23.374;2023-07-31T16:53:21;6.80;;;3.10;;
31872;SDS011;22407;42.820;23.374;2023-07-31T16:55:46;7.13;;;3.30;;
31872;SDS011;22407;42.820;23.374;2023-07-31T16:58:12;6.40;;;3.53;;
31872;SDS011;22407;42.820;23.374;2023-07-31T17:00:37;7.73;;;3.40;;
31872;SDS011;22407;42.820;23.374;2023-07-31T17:03:02;6.50;;;3.20;;
31872;SDS011;22407;42.820;23.374;2023-07-31T17:05:28;6.63;;;3.10;;
31872;SDS011;22407;42.820;23.374;2023-07-31T17:07:53;7.40;;;3.50;;
31872;SDS011;22407;42.820;23.374;2023-07-31T17:10:19;7.70;;;3.55;;
31872;SDS011;22407;42.820;23.374;2023-07-31T17:12:44;6.47;;;3.33;;
31872;SDS011;22407;42.820;23.374;2023-07-31T17:15:09;7.60;;;3.53;;
31872;SDS011;22407;42.820;23.374;2023-07-31T17:17:35;6.70;;;3.60;;
31872;SDS011;22407;42.820;23.374;2023-07-31T17:20:00;7.97;;;3.70;;
31872;SDS011;22407;42.820;23.374;2023-07-31T17:22:25;6.93;;;3.50;;
31872;SDS011;22407;42.820;23.374;2023-07-31T17:24:51;8.67;;;4.00;;
31872;SDS011;22407;42.820;23.374;2023-07-31T17:27:16;6.37;;;3.73;;
31872;SDS011;22407;42.820;23.374;2023-07-31T17:29:41;6.83;;;3.70;;
31872;SDS011;22407;42.820;23.374;2023-07-31T17:32:07;8.80;;;4.00;;
31872;SDS011;22407;42.820;23.374;2023-07-31T17:34:32;7.67;;;4.10;;
31872;SDS011;22407;42.820;23.374;2023-07-31T17:36:57;7.07;;;3.80;;
31872;SDS011;22407;42.820;23.374;2023-07-31T17:39:23;9.43;;;4.07;;
31872;SDS011;22407;42.820;23.374;2023-07-31T17:41:49;6.50;;;3.93;;
31872;SDS011;22407;42.820;23.374;2023-07-31T17:44:14;8.13;;;4.23;;
31872;SDS011;22407;42.820;23.374;2023-07-31T17:46:39;7.30;;;3.60;;
31872;SDS011;22407;42.820;23.374;2023-07-31T17:49:05;7.73;;;3.97;;
31872;SDS011;22407;42.820;23.374;2023-07-31T17:51:31;6.47;;;3.80;;